Time;durP1;ratioP1;P1;durP2;ratioP2;P2;SDS_P1;SDS_P2;PMS_P1;PMS_P2;Temp;Humidity;BMP_temperature;BMP_pressure;BME280_temperature;BME280_humidity;BME280_pressure;Samples;Min_cycle;Max_cycle;Signal;HPM_P1;HPM_P2
2023/01/31 00:01:35;;;;;;;12.60;6.00;;;;;;;2.61;88.16;99213.92;83784;1262;3011626;-70
2023/01/31 00:04:10;;;;;;;11.50;6.00;;;;;;;2.61;88.17;99213.23;82471;1262;3025068;-72
2023/01/31 00:06:50;;;;;;;10.60;6.00;;;;;;;2.60;88.14;99213.92;83234;1256;3011435;-76
2023/01/31 00:09:25;;;;;;;12.20;6.60;;;;;;;2.61;88.12;99215.11;82460;1262;3026163;-75
2023/01/31 00:11:58;;;;;;;11.30;6.80;;;;;;;2.62;88.07;99223.17;83235;1256;3011543;-72
2023/01/31 00:14:29;;;;;;;11.40;6.40;;;;;;;2.61;88.05;99223.72;83776;1262;3012046;-74
2023/01/31 00:17:04;;;;;;;10.30;5.80;;;;;;;2.64;88.41;99227.10;82311;1262;3024466;-75
2023/01/31 00:19:38;;;;;;;10.70;6.20;;;;;;;2.66;88.00;99230.49;83238;1262;3011581;-73
2023/01/31 00:22:10;;;;;;;11.00;6.00;;;;;;;2.68;88.10;99232.33;83751;1256;3011493;-73
2023/01/31 00:24:45;;;;;;;11.00;5.90;;;;;;;2.71;88.27;99231.75;82473;1255;3024790;-73
2023/01/31 00:27:18;;;;;;;12.50;6.80;;;;;;;2.68;88.12;99232.17;83244;1256;3011392;-72
2023/01/31 00:29:49;;;;;;;11.50;5.70;;;;;;;2.67;88.14;99237.70;83807;1256;3011541;-72
2023/01/31 00:32:21;;;;;;;9.60;5.40;;;;;;;2.66;88.24;99239.63;82463;1267;3024729;-71
2023/01/31 00:34:53;;;;;;;10.40;4.90;;;;;;;2.67;88.10;99241.14;83778;1257;3011595;-73
2023/01/31 00:37:26;;;;;;;11.20;5.40;;;;;;;2.68;88.19;99251.11;82456;1262;3028191;-72
2023/01/31 00:40:00;;;;;;;13.90;5.70;;;;;;;2.70;88.18;99253.48;83786;1256;3011585;-73
2023/01/31 00:42:32;;;;;;;12.40;6.00;;;;;;;2.70;88.18;99257.61;82505;1256;3025491;-73
2023/01/31 00:45:04;;;;;;;11.10;5.90;;;;;;;2.70;88.23;99260.70;83803;1262;3011609;-72
2023/01/31 00:47:37;;;;;;;9.10;5.00;;;;;;;2.69;88.18;99262.79;82432;1262;3025608;-72
2023/01/31 00:50:13;;;;;;;11.50;5.20;;;;;;;2.71;88.43;99269.63;83819;1260;3011512;-75
2023/01/31 00:52:46;;;;;;;8.90;5.30;;;;;;;2.74;88.31;99275.41;82445;1256;3027045;-75
2023/01/31 00:55:17;;;;;;;12.10;6.00;;;;;;;2.73;88.21;99272.17;83816;1266;3013151;-74
2023/01/31 00:57:49;;;;;;;12.40;4.90;;;;;;;2.72;88.26;99276.84;82474;1256;3025522;-73
2023/01/31 01:00:21;;;;;;;8.00;4.60;;;;;;;2.74;88.30;99281.42;83799;1256;3011478;-69
2023/01/31 01:02:53;;;;;;;7.70;4.80;;;;;;;2.77;88.31;99279.66;82460;1262;3026241;-72
2023/01/31 01:05:28;;;;;;;8.50;5.20;;;;;;;2.80;88.20;99287.67;83812;1262;3011489;-75
2023/01/31 01:08:01;;;;;;;11.50;4.90;;;;;;;2.82;88.33;99291.42;82498;1270;3026149;-75
2023/01/31 01:10:37;;;;;;;8.70;4.60;;;;;;;2.83;88.13;99288.80;83805;1256;3012847;-74
2023/01/31 01:13:10;;;;;;;8.70;4.80;;;;;;;2.82;88.37;99291.93;82491;1270;3025177;-75
2023/01/31 01:15:43;;;;;;;9.60;5.10;;;;;;;2.82;88.07;99297.27;83824;1256;3013246;-73
2023/01/31 01:18:17;;;;;;;8.10;4.30;;;;;;;2.83;88.01;99299.12;82568;1270;3025544;-74
2023/01/31 01:20:48;;;;;;;9.30;4.90;;;;;;;2.86;88.18;99294.77;83785;1257;3011541;-74
2023/01/31 01:23:21;;;;;;;8.50;4.50;;;;;;;2.87;87.87;99301.81;82447;1260;3026513;-76
2023/01/31 01:25:52;;;;;;;13.20;5.50;;;;;;;2.89;88.01;99304.35;83784;1260;3011195;-70
2023/01/31 01:28:24;;;;;;;11.30;5.10;;;;;;;2.85;87.98;99303.39;82439;1256;3026420;-72
2023/01/31 01:30:56;;;;;;;8.00;3.50;;;;;;;2.84;87.89;99300.83;83838;1257;3013265;-76
2023/01/31 01:33:30;;;;;;;8.50;4.70;;;;;;;2.84;88.03;99300.48;82442;1267;3028114;-76
2023/01/31 01:36:03;;;;;;;9.40;5.30;;;;;;;2.85;87.89;99305.98;83829;1257;3013267;-75
2023/01/31 01:38:39;;;;;;;12.10;5.30;;;;;;;2.84;87.94;99310.98;82482;1257;3026548;-74
2023/01/31 01:41:11;;;;;;;14.80;6.90;;;;;;;2.82;87.88;99317.41;83871;1260;3013391;-72
2023/01/31 01:43:47;;;;;;;14.00;6.90;;;;;;;2.78;88.01;99316.13;82460;1256;3025975;-72
2023/01/31 01:46:24;;;;;;;17.20;7.80;;;;;;;2.76;87.90;99319.96;83253;1270;3013466;-72
2023/01/31 01:49:05;;;;;;;17.00;8.80;;;;;;;2.77;88.03;99321.67;82502;1261;3027363;-72
2023/01/31 01:51:38;;;;;;;12.70;7.10;;;;;;;2.78;88.03;99329.55;82496;1263;3026220;-76
2023/01/31 01:54:14;;;;;;;15.50;8.20;;;;;;;2.79;88.13;99330.06;83759;1256;3011208;-75
2023/01/31 01:56:49;;;;;;;11.20;5.60;;;;;;;2.79;88.12;99337.12;82322;1262;3027507;-70
2023/01/31 01:59:31;;;;;;;7.40;4.80;;;;;;;2.78;88.00;99338.36;83216;1256;3011531;-72
2023/01/31 02:02:04;;;;;;;8.10;5.10;;;;;;;2.80;88.13;99341.38;82442;1256;3025469;-71
2023/01/31 02:04:39;;;;;;;9.80;4.70;;;;;;;2.83;88.14;99344.60;83784;1261;3011428;-75
2023/01/31 02:07:12;;;;;;;8.60;4.90;;;;;;;2.87;88.11;99347.29;82277;1261;3027571;-74
2023/01/31 02:09:50;;;;;;;8.70;5.10;;;;;;;2.88;88.06;99347.08;83801;1262;3011545;-74
2023/01/31 02:12:23;;;;;;;10.80;5.70;;;;;;;2.88;88.17;99352.40;82454;1260;3026587;-75
2023/01/31 02:14:55;;;;;;;12.30;5.40;;;;;;;2.90;88.13;99359.27;83774;1258;3011803;-73
2023/01/31 02:17:28;;;;;;;8.00;4.40;;;;;;;2.92;87.94;99367.16;82448;1260;3026013;-73
2023/01/31 02:20:10;;;;;;;10.10;5.30;;;;;;;2.94;87.96;99371.05;83771;1260;3011540;-72
2023/01/31 02:22:56;;;;;;;11.70;5.50;;;;;;;2.96;87.84;99383.25;82477;1264;3026233;-72
2023/01/31 02:26:04;;;;;;;12.50;5.60;;;;;;;2.95;87.76;99382.23;82476;1260;3025872;-75
2023/01/31 02:29:13;;;;;;;10.40;5.50;;;;;;;2.93;87.84;99387.27;82445;1269;3027513;-74
2023/01/31 02:32:48;;;;;;;15.30;6.90;;;;;;;2.92;87.90;99392.82;82485;1262;3026382;-74
2023/01/31 02:35:30;;;;;;;22.20;10.00;;;;;;;2.92;87.72;99395.23;82432;1267;3025389;-76
2023/01/31 02:38:12;;;;;;;14.80;7.50;;;;;;;2.95;88.02;99395.14;82430;1260;3024760;-75
2023/01/31 02:40:48;;;;;;;18.70;6.90;;;;;;;3.00;87.88;99400.02;82300;1268;3026549;-74
2023/01/31 02:43:25;;;;;;;18.80;6.90;;;;;;;3.04;88.02;99398.91;82443;1270;3024437;-74
2023/01/31 02:46:04;;;;;;;18.10;6.80;;;;;;;3.03;88.00;99401.34;82438;1262;3024521;-74
2023/01/31 02:48:43;;;;;;;13.00;5.30;;;;;;;3.02;87.74;99404.30;82413;1270;3025411;-74
2023/01/31 02:51:20;;;;;;;20.30;6.60;;;;;;;3.02;87.73;99407.92;82491;1260;3025354;-75
2023/01/31 02:53:55;;;;;;;17.00;6.10;;;;;;;3.06;87.89;99407.31;82388;1262;3025039;-74
2023/01/31 02:56:30;;;;;;;13.80;5.70;;;;;;;3.09;87.62;99413.78;83263;1260;3011525;-74
2023/01/31 02:59:02;;;;;;;17.40;7.70;;;;;;;3.06;87.55;99426.59;83770;1269;3011810;-74
2023/01/31 03:01:39;;;;;;;12.50;4.90;;;;;;;3.05;87.32;99431.29;82402;1270;3025563;-73
2023/01/31 03:04:17;;;;;;;16.40;6.50;;;;;;;3.03;87.25;99439.42;82438;1269;3025982;-73
2023/01/31 03:07:03;;;;;;;12.70;3.90;;;;;;;3.01;87.16;99438.93;82285;1269;3025822;-74
2023/01/31 03:09:56;;;;;;;9.60;4.20;;;;;;;3.02;87.19;99440.81;82470;1261;3026073;-72
2023/01/31 03:12:39;;;;;;;16.20;5.20;;;;;;;3.05;87.37;99447.48;82449;1262;3026934;-75
2023/01/31 03:18:36;;;;;;;15.30;5.80;;;;;;;3.03;87.24;99463.71;82420;1266;3025591;-74
2023/01/31 03:21:16;;;;;;;15.50;5.90;;;;;;;3.02;87.25;99473.21;82445;1269;3026369;-71
2023/01/31 03:23:50;;;;;;;12.50;5.50;;;;;;;3.01;87.31;99476.33;82442;1257;3026704;-71
2023/01/31 03:26:26;;;;;;;12.70;3.60;;;;;;;3.03;87.21;99480.27;83260;1260;3011335;-71
2023/01/31 03:29:00;;;;;;;13.30;4.80;;;;;;;3.04;87.08;99479.54;83234;1257;3011589;-71
2023/01/31 03:31:35;;;;;;;14.80;5.60;;;;;;;3.07;87.18;99485.50;83778;1256;3011401;-68
2023/01/31 03:34:10;;;;;;;13.90;4.00;;;;;;;3.04;86.88;99492.29;82474;1264;3025258;-70
2023/01/31 03:36:50;;;;;;;11.10;4.50;;;;;;;3.03;87.12;99498.01;83173;1258;3011602;-71
2023/01/31 03:39:32;;;;;;;9.50;3.70;;;;;;;3.03;87.05;99501.95;82421;1261;3026755;-71
2023/01/31 03:42:08;;;;;;;16.70;5.00;;;;;;;3.05;86.91;99505.19;82437;1256;3026228;-71
2023/01/31 03:44:46;;;;;;;16.20;5.00;;;;;;;3.08;86.90;99509.09;82469;1269;3026134;-73
2023/01/31 03:47:21;;;;;;;15.00;5.20;;;;;;;3.09;86.67;99506.30;82484;1260;3026080;-74
2023/01/31 03:49:55;;;;;;;12.30;4.10;;;;;;;3.11;86.78;99508.70;83237;1260;3011924;-70
2023/01/31 03:52:31;;;;;;;12.60;3.90;;;;;;;3.09;86.52;99504.77;83770;1261;3011586;-71
2023/01/31 03:55:07;;;;;;;8.30;2.90;;;;;;;3.06;86.29;99503.28;82477;1269;3025636;-73
2023/01/31 03:57:40;;;;;;;12.90;4.00;;;;;;;3.06;86.23;99511.88;82468;1267;3024990;-75
2023/01/31 04:00:15;;;;;;;15.80;5.00;;;;;;;3.06;86.10;99511.38;83768;1260;3012915;-74
2023/01/31 04:02:53;;;;;;;18.60;4.70;;;;;;;3.05;85.96;99507.61;82477;1269;3026308;-73
2023/01/31 04:05:30;;;;;;;17.40;3.70;;;;;;;3.05;86.18;99514.15;82487;1254;3027292;-71
2023/01/31 04:08:02;;;;;;;9.70;3.50;;;;;;;3.05;86.17;99518.48;82490;1267;3026154;-72
2023/01/31 04:10:33;;;;;;;11.40;3.50;;;;;;;3.05;85.93;99518.98;83799;1260;3012897;-71
2023/01/31 04:13:05;;;;;;;11.50;3.70;;;;;;;3.06;85.97;99520.35;82431;1270;3025407;-74
2023/01/31 04:15:38;;;;;;;11.30;3.20;;;;;;;3.07;85.96;99519.28;83792;1260;3011411;-73
2023/01/31 04:18:11;;;;;;;14.40;3.90;;;;;;;3.08;85.67;99520.81;82486;1270;3026499;-72
2023/01/31 04:20:42;;;;;;;15.70;5.00;;;;;;;3.05;85.28;99521.55;83721;1266;3011747;-74
2023/01/31 04:23:14;;;;;;;14.40;4.80;;;;;;;2.98;84.77;99530.66;82441;1267;3027335;-74
2023/01/31 04:25:47;;;;;;;15.20;5.00;;;;;;;2.96;85.20;99536.76;83850;1261;3011463;-75
2023/01/31 04:28:20;;;;;;;13.10;4.70;;;;;;;2.96;84.82;99538.81;82480;1260;3024676;-75
2023/01/31 04:30:56;;;;;;;16.80;5.60;;;;;;;2.93;85.06;99540.25;83795;1257;3011293;-74
2023/01/31 04:33:30;;;;;;;17.20;5.00;;;;;;;2.90;84.89;99544.79;82485;1267;3024705;-75
2023/01/31 04:36:09;;;;;;;21.60;5.70;;;;;;;2.83;84.60;99551.48;83257;1266;3011559;-75
2023/01/31 04:38:41;;;;;;;16.80;6.70;;;;;;;2.75;84.75;99554.55;82448;1270;3026353;-75
2023/01/31 04:41:14;;;;;;;12.20;4.40;;;;;;;2.70;84.54;99564.46;83781;1257;3011358;-76
2023/01/31 04:43:47;;;;;;;17.50;5.20;;;;;;;2.65;84.66;99562.15;82440;1256;3025861;-75
2023/01/31 04:46:22;;;;;;;15.60;5.40;;;;;;;2.63;84.99;99567.54;83766;1267;3012681;-75
2023/01/31 04:48:54;;;;;;;19.20;5.10;;;;;;;2.65;85.15;99572.14;82447;1268;3026627;-75
2023/01/31 04:51:28;;;;;;;16.30;5.20;;;;;;;2.66;85.18;99581.08;83807;1270;3012665;-70
2023/01/31 04:54:01;;;;;;;24.40;7.90;;;;;;;2.65;85.00;99577.13;82469;1269;3025344;-71
2023/01/31 04:56:33;;;;;;;16.60;4.70;;;;;;;2.62;84.87;99583.73;83689;1257;3011421;-71
2023/01/31 04:59:08;;;;;;;14.00;5.10;;;;;;;2.57;84.63;99590.52;82451;1257;3025948;-69
2023/01/31 05:01:41;;;;;;;21.70;5.00;;;;;;;2.57;85.05;99596.56;83243;1264;3011603;-74
2023/01/31 05:04:13;;;;;;;16.80;5.40;;;;;;;2.58;84.92;99602.92;83765;1260;3012011;-75
2023/01/31 05:06:48;;;;;;;19.40;5.50;;;;;;;2.57;85.09;99606.20;82454;1260;3026564;-74
2023/01/31 05:09:23;;;;;;;14.20;4.40;;;;;;;2.57;85.08;99608.79;83785;1257;3011470;-73
2023/01/31 05:11:55;;;;;;;9.90;4.00;;;;;;;2.57;84.84;99615.84;82424;1260;3025198;-71
2023/01/31 05:14:27;;;;;;;18.90;6.00;;;;;;;2.58;84.79;99618.07;83794;1260;3013027;-71
2023/01/31 05:17:00;;;;;;;15.90;4.30;;;;;;;2.59;84.95;99629.94;82443;1257;3024745;-71
2023/01/31 05:19:31;;;;;;;19.00;5.00;;;;;;;2.58;84.97;99631.65;83810;1256;3011507;-74
2023/01/31 05:22:03;;;;;;;17.70;5.60;;;;;;;2.61;84.84;99639.20;82410;1269;3025085;-75
2023/01/31 05:24:35;;;;;;;16.40;4.30;;;;;;;2.60;85.00;99639.89;83777;1257;3013018;-72
2023/01/31 05:27:10;;;;;;;13.40;4.60;;;;;;;2.63;84.85;99650.71;82434;1257;3026156;-75
2023/01/31 05:29:45;;;;;;;14.00;4.90;;;;;;;2.66;84.88;99646.69;83239;1267;3011360;-70
2023/01/31 05:32:21;;;;;;;17.80;8.70;;;;;;;2.68;84.79;99652.15;83236;1271;3011845;-70
2023/01/31 05:34:55;;;;;;;29.20;11.20;;;;;;;2.69;84.39;99658.85;83284;1256;3011560;-70
2023/01/31 05:37:28;;;;;;;28.70;10.90;;;;;;;2.68;84.61;99662.33;83771;1264;3011710;-70
2023/01/31 05:40:03;;;;;;;29.80;10.50;;;;;;;2.67;84.64;99664.23;82476;1269;3026599;-74
2023/01/31 05:42:34;;;;;;;35.20;14.90;;;;;;;2.69;84.43;99671.77;83771;1259;3012920;-73
2023/01/31 05:45:12;;;;;;;21.80;9.40;;;;;;;2.72;84.43;99668.11;82476;1267;3026020;-71
2023/01/31 05:47:47;;;;;;;19.30;7.90;;;;;;;2.73;84.39;99672.05;82490;1270;3025211;-71
2023/01/31 05:50:21;;;;;;;18.50;6.50;;;;;;;2.74;84.41;99677.89;83257;1267;3012034;-74
2023/01/31 05:52:53;;;;;;;19.50;7.40;;;;;;;2.71;84.23;99681.38;83752;1260;3011568;-74
2023/01/31 05:55:26;;;;;;;16.10;5.40;;;;;;;2.66;83.97;99687.33;82499;1258;3025782;-71
2023/01/31 05:58:03;;;;;;;15.70;6.20;;;;;;;2.61;83.93;99696.02;82455;1257;3026092;-70
2023/01/31 06:00:33;;;;;;;13.20;6.50;;;;;;;2.61;84.19;99699.30;83800;1260;3011390;-72
2023/01/31 06:03:06;;;;;;;21.00;7.40;;;;;;;2.63;84.28;99706.66;82415;1257;3027879;-70
2023/01/31 06:05:39;;;;;;;25.20;11.10;;;;;;;2.65;84.08;99712.64;83778;1260;3011578;-71
2023/01/31 06:08:12;;;;;;;14.10;4.90;;;;;;;2.67;84.09;99716.07;82481;1259;3025875;-72
2023/01/31 06:10:43;;;;;;;15.60;6.00;;;;;;;2.65;83.74;99720.92;83799;1257;3011619;-72
2023/01/31 06:13:16;;;;;;;12.90;4.50;;;;;;;2.63;83.90;99725.27;82481;1270;3029694;-70
2023/01/31 06:15:48;;;;;;;13.40;4.40;;;;;;;2.64;83.98;99727.83;83801;1267;3011582;-74
2023/01/31 06:18:21;;;;;;;14.70;5.20;;;;;;;2.66;84.00;99734.34;82458;1257;3025476;-72
2023/01/31 06:20:52;;;;;;;16.90;5.90;;;;;;;2.71;84.16;99737.52;83791;1258;3011584;-72
2023/01/31 06:23:24;;;;;;;20.30;5.50;;;;;;;2.74;83.95;99734.36;82448;1258;3025778;-75
2023/01/31 06:26:00;;;;;;;15.20;5.60;;;;;;;2.75;83.84;99738.85;83264;1258;3011456;-71
2023/01/31 06:28:32;;;;;;;14.30;5.70;;;;;;;2.75;83.51;99740.05;83798;1260;3011226;-72
2023/01/31 06:31:09;;;;;;;14.80;5.20;;;;;;;2.71;83.34;99742.00;82422;1258;3027650;-74
2023/01/31 06:33:42;;;;;;;9.40;3.70;;;;;;;2.68;83.25;99746.52;82474;1270;3024971;-74
2023/01/31 06:36:13;;;;;;;14.30;4.30;;;;;;;2.67;83.29;99750.34;83801;1270;3011879;-71
2023/01/31 06:38:49;;;;;;;17.10;5.80;;;;;;;2.68;83.40;99758.94;82457;1260;3026119;-71
2023/01/31 06:41:22;;;;;;;18.70;5.30;;;;;;;2.70;83.29;99757.70;82424;1261;3026348;-74
2023/01/31 06:43:55;;;;;;;13.20;5.60;;;;;;;2.68;83.04;99764.61;83737;1256;3012076;-74
2023/01/31 06:46:30;;;;;;;14.80;4.30;;;;;;;2.65;82.94;99765.70;82576;1263;3025327;-74
2023/01/31 06:49:03;;;;;;;14.60;4.60;;;;;;;2.63;82.79;99767.98;83259;1257;3011558;-74
2023/01/31 06:51:34;;;;;;;17.00;5.20;;;;;;;2.63;82.86;99770.04;83789;1269;3011532;-71
2023/01/31 06:54:07;;;;;;;14.80;4.90;;;;;;;2.62;82.51;99768.67;82461;1257;3026804;-74
2023/01/31 06:56:39;;;;;;;21.50;7.20;;;;;;;2.59;82.74;99777.15;83786;1257;3011565;-71
2023/01/31 06:59:13;;;;;;;16.00;4.90;;;;;;;2.59;82.72;99772.33;82471;1260;3025689;-71
2023/01/31 07:01:44;;;;;;;14.10;4.60;;;;;;;2.59;82.88;99775.60;83792;1257;3012680;-71
2023/01/31 07:04:17;;;;;;;16.40;5.40;;;;;;;2.60;82.58;99776.96;82475;1257;3026891;-70
2023/01/31 07:06:48;;;;;;;14.80;5.00;;;;;;;2.61;82.44;99777.81;83766;1260;3011271;-73
2023/01/31 07:09:27;;;;;;;19.30;5.30;;;;;;;2.60;82.32;99779.55;82468;1256;3025620;-74
2023/01/31 07:11:59;;;;;;;13.10;4.90;;;;;;;2.60;82.63;99787.81;82455;1260;3027040;-73
2023/01/31 07:14:30;;;;;;;11.50;4.20;;;;;;;2.64;82.68;99796.02;83756;1256;3011410;-70
2023/01/31 07:17:03;;;;;;;16.40;5.60;;;;;;;2.65;82.45;99802.89;82472;1260;3026255;-70
2023/01/31 07:19:34;;;;;;;18.70;6.10;;;;;;;2.64;82.30;99805.67;83791;1256;3011574;-72
2023/01/31 07:22:06;;;;;;;14.80;6.40;;;;;;;2.65;82.28;99815.12;82417;1267;3025055;-72
2023/01/31 07:24:37;;;;;;;24.30;9.80;;;;;;;2.68;82.38;99820.93;83788;1262;3011586;-71
2023/01/31 07:27:09;;;;;;;24.00;10.60;;;;;;;2.74;82.51;99827.55;82457;1260;3025796;-71
2023/01/31 07:29:40;;;;;;;16.40;7.50;;;;;;;2.80;82.54;99835.05;83784;1270;3011482;-71
2023/01/31 07:32:13;;;;;;;14.30;5.10;;;;;;;2.84;82.39;99841.00;82435;1257;3026534;-70
2023/01/31 07:34:48;;;;;;;14.50;5.30;;;;;;;2.88;82.24;99841.13;83806;1260;3011439;-73
2023/01/31 07:37:20;;;;;;;17.40;7.10;;;;;;;2.89;82.21;99840.77;82440;1257;3025666;-74
2023/01/31 07:39:51;;;;;;;18.10;8.00;;;;;;;2.93;82.03;99846.22;83294;1261;3011634;-73
2023/01/31 07:42:24;;;;;;;15.30;7.10;;;;;;;2.96;81.45;99848.59;82478;1256;3026214;-74
2023/01/31 07:44:58;;;;;;;21.10;9.50;;;;;;;3.00;81.53;99854.73;83821;1259;3011558;-76
2023/01/31 07:47:34;;;;;;;37.20;17.20;;;;;;;3.05;81.55;99858.61;82522;1260;3026363;-74
2023/01/31 07:50:11;;;;;;;18.70;8.10;;;;;;;3.08;81.49;99862.01;83804;1259;3011479;-74
2023/01/31 07:52:47;;;;;;;20.80;7.50;;;;;;;3.12;81.24;99863.16;82484;1261;3025773;-74
2023/01/31 07:55:25;;;;;;;17.00;6.60;;;;;;;3.16;81.45;99869.64;82417;1261;3025704;-75
2023/01/31 07:57:58;;;;;;;15.90;5.50;;;;;;;3.22;81.08;99873.17;82460;1260;3026371;-75
2023/01/31 08:03:35;;;;;;;15.90;5.40;;;;;;;3.30;80.61;99887.16;82454;1261;3026391;-72
2023/01/31 08:06:12;;;;;;;18.20;5.80;;;;;;;3.32;80.11;99891.63;82469;1257;3027124;-71
2023/01/31 08:08:48;;;;;;;17.10;5.40;;;;;;;3.35;80.46;99887.27;83200;1260;3013009;-71
2023/01/31 08:11:24;;;;;;;14.10;4.40;;;;;;;3.37;80.18;99889.11;83233;1259;3011578;-74
2023/01/31 08:14:01;;;;;;;16.40;5.40;;;;;;;3.36;79.92;99891.02;82467;1260;3025555;-74
2023/01/31 08:16:35;;;;;;;13.80;5.10;;;;;;;3.33;79.56;99899.36;82458;1269;3025789;-75
2023/01/31 08:19:07;;;;;;;15.00;6.10;;;;;;;3.34;79.46;99901.92;83759;1256;3011578;-73
2023/01/31 08:21:39;;;;;;;13.00;6.00;;;;;;;3.38;79.38;99909.11;82485;1256;3025689;-71
2023/01/31 08:24:12;;;;;;;10.20;5.00;;;;;;;3.42;79.59;99912.84;83806;1256;3011634;-71
2023/01/31 08:26:52;;;;;;;13.60;4.90;;;;;;;3.47;79.28;99919.30;82449;1256;3026462;-71
2023/01/31 08:29:29;;;;;;;15.00;6.00;;;;;;;3.50;79.33;99922.36;83800;1260;3011558;-71
2023/01/31 08:32:01;;;;;;;12.90;4.30;;;;;;;3.51;78.98;99922.88;82502;1260;3026416;-72
2023/01/31 08:34:36;;;;;;;13.40;4.60;;;;;;;3.54;79.16;99928.51;83837;1257;3011536;-72
2023/01/31 08:37:08;;;;;;;10.80;4.90;;;;;;;3.55;78.59;99930.03;82478;1256;3026864;-72
2023/01/31 08:39:43;;;;;;;15.40;5.50;;;;;;;3.56;78.25;99928.65;83882;1255;3012807;-72
2023/01/31 08:42:16;;;;;;;10.20;4.30;;;;;;;3.58;78.29;99926.88;82376;1256;3026019;-71
2023/01/31 08:44:47;;;;;;;10.10;3.80;;;;;;;3.67;78.18;99932.08;83795;1260;3012034;-73
2023/01/31 08:47:22;;;;;;;12.00;4.30;;;;;;;3.77;78.15;99933.63;82482;1258;3026427;-73
2023/01/31 08:49:55;;;;;;;11.20;3.80;;;;;;;3.89;77.40;99937.39;83245;1258;3011584;-72
2023/01/31 08:52:26;;;;;;;12.70;3.60;;;;;;;3.99;77.58;99934.45;83789;1261;3011610;-72
2023/01/31 08:55:00;;;;;;;12.90;3.60;;;;;;;4.10;77.03;99929.24;82514;1257;3026169;-72
2023/01/31 08:57:38;;;;;;;11.90;5.60;;;;;;;4.18;76.07;99937.19;83786;1256;3011473;-73
2023/01/31 09:00:14;;;;;;;19.00;6.00;;;;;;;4.20;76.42;99942.35;82508;1256;3026019;-76
2023/01/31 09:02:55;;;;;;;15.00;4.30;;;;;;;4.19;75.54;99944.63;82376;1256;3026968;-73
2023/01/31 09:05:32;;;;;;;11.80;3.70;;;;;;;4.14;75.12;99943.85;82490;1256;3025479;-73
2023/01/31 09:08:07;;;;;;;14.20;3.80;;;;;;;4.09;75.16;99942.03;83223;1256;3011676;-73
2023/01/31 09:10:50;;;;;;;13.40;3.80;;;;;;;4.06;75.41;99944.51;83277;1257;3011430;-73
2023/01/31 09:13:23;;;;;;;11.30;3.80;;;;;;;4.04;75.06;99949.72;82475;1260;3025951;-73
2023/01/31 09:16:01;;;;;;;8.40;3.30;;;;;;;4.05;74.92;99949.71;83761;1261;3011473;-75
2023/01/31 09:18:34;;;;;;;10.50;4.40;;;;;;;4.04;74.94;99954.55;82478;1257;3026466;-75
2023/01/31 09:21:09;;;;;;;13.50;5.60;;;;;;;4.00;74.28;99958.77;83801;1257;3011540;-71
2023/01/31 09:23:43;;;;;;;13.90;5.40;;;;;;;3.95;74.37;99956.45;82487;1260;3026082;-72
2023/01/31 09:26:15;;;;;;;10.60;3.80;;;;;;;3.93;74.62;99959.42;83835;1256;3011498;-76
2023/01/31 09:28:52;;;;;;;16.60;6.80;;;;;;;3.91;74.66;99959.45;82464;1261;3026423;-75
2023/01/31 09:31:23;;;;;;;18.50;7.60;;;;;;;3.89;75.07;99963.11;83817;1256;3011967;-75
2023/01/31 09:33:57;;;;;;;18.20;8.20;;;;;;;3.89;74.99;99965.69;82478;1257;3027102;-75
2023/01/31 09:36:31;;;;;;;16.50;6.60;;;;;;;3.88;75.17;99970.89;83797;1256;3011514;-72
2023/01/31 09:39:03;;;;;;;12.10;6.00;;;;;;;3.90;75.09;99971.55;82476;1257;3025724;-72
2023/01/31 09:41:37;;;;;;;11.20;4.20;;;;;;;3.92;74.87;99979.27;83689;1256;3011608;-72
2023/01/31 09:44:13;;;;;;;12.30;5.60;;;;;;;3.94;74.73;99976.83;82396;1256;3025565;-72
2023/01/31 09:46:49;;;;;;;15.70;5.80;;;;;;;3.96;74.17;99977.48;83234;1257;3011505;-76
2023/01/31 09:49:26;;;;;;;19.20;8.30;;;;;;;3.98;74.50;99980.71;83247;1260;3011424;-73
2023/01/31 09:52:01;;;;;;;17.10;7.10;;;;;;;4.00;74.18;99980.87;82468;1257;3026483;-71
2023/01/31 09:54:35;;;;;;;17.70;7.20;;;;;;;4.00;74.06;99986.03;83806;1261;3011348;-71
2023/01/31 09:57:16;;;;;;;20.40;10.20;;;;;;;4.01;73.94;99986.53;82478;1258;3026665;-72
2023/01/31 09:59:57;;;;;;;20.50;9.30;;;;;;;4.06;74.26;99986.64;82498;1260;3026123;-76
2023/01/31 10:03:01;;;;;;;16.40;7.00;;;;;;;4.14;74.38;99984.60;82472;1260;3024900;-75
2023/01/31 10:05:43;;;;;;;12.90;5.70;;;;;;;4.19;73.77;99986.39;82494;1264;3026809;-76
2023/01/31 10:08:40;;;;;;;19.00;8.70;;;;;;;4.23;73.27;99992.34;82504;1261;3025267;-76
2023/01/31 10:11:15;;;;;;;22.80;10.20;;;;;;;4.26;73.36;99987.64;82415;1260;3026456;-76
2023/01/31 10:13:51;;;;;;;14.30;6.20;;;;;;;4.33;73.29;99987.00;82486;1256;3025975;-75
2023/01/31 10:16:26;;;;;;;18.20;7.60;;;;;;;4.40;73.27;99985.83;83161;1261;3011451;-74
2023/01/31 10:19:02;;;;;;;12.10;5.30;;;;;;;4.43;72.65;99981.10;83778;1260;3011493;-72
2023/01/31 10:21:36;;;;;;;13.80;5.60;;;;;;;4.44;71.91;99977.13;82396;1256;3026041;-72
2023/01/31 10:24:15;;;;;;;13.20;4.20;;;;;;;4.43;71.89;99980.42;83221;1260;3013674;-71
2023/01/31 10:26:47;;;;;;;12.20;3.90;;;;;;;4.40;71.93;99980.12;82438;1257;3025102;-75
2023/01/31 10:29:31;;;;;;;13.60;4.00;;;;;;;4.39;71.73;99978.77;83780;1256;3011800;-75
2023/01/31 10:32:10;;;;;;;11.30;3.60;;;;;;;4.36;71.72;99980.89;82439;1257;3025500;-77
2023/01/31 10:34:52;;;;;;;13.00;4.00;;;;;;;4.38;71.72;99977.40;82482;1260;3026141;-70
2023/01/31 10:37:32;;;;;;;11.20;3.40;;;;;;;4.37;71.64;99978.63;82459;1257;3026275;-71
2023/01/31 10:40:13;;;;;;;9.20;3.20;;;;;;;4.41;71.35;99980.80;82382;1258;3025996;-74
2023/01/31 10:42:53;;;;;;;9.00;3.20;;;;;;;4.45;71.08;99979.36;82475;1256;3025792;-74
2023/01/31 10:45:32;;;;;;;12.90;4.00;;;;;;;4.46;70.90;99974.48;82480;1256;3026847;-71
2023/01/31 10:48:15;;;;;;;14.40;5.00;;;;;;;4.51;71.01;99972.14;82508;1258;3025480;-71
2023/01/31 10:50:57;;;;;;;13.30;4.30;;;;;;;4.57;71.08;99974.45;82480;1256;3026382;-71
2023/01/31 10:53:47;;;;;;;11.60;3.90;;;;;;;4.69;70.95;99975.27;82524;1256;3027502;-71
2023/01/31 10:56:23;;;;;;;13.30;3.60;;;;;;;4.72;69.52;99967.40;82461;1256;3027158;-75
2023/01/31 10:58:55;;;;;;;12.40;5.30;;;;;;;4.73;69.55;99972.40;82495;1260;3026216;-75
2023/01/31 11:01:26;;;;;;;15.60;5.40;;;;;;;4.78;70.14;99973.66;83769;1256;3011598;-76
2023/01/31 11:03:59;;;;;;;10.40;4.50;;;;;;;4.84;69.45;99969.75;82458;1256;3025929;-75
2023/01/31 11:06:33;;;;;;;14.10;5.90;;;;;;;4.86;68.30;99965.05;83673;1257;3011565;-71
2023/01/31 11:09:05;;;;;;;12.60;4.20;;;;;;;4.82;68.47;99964.60;82465;1268;3025046;-71
2023/01/31 11:11:36;;;;;;;16.10;5.90;;;;;;;4.80;68.03;99966.38;83813;1261;3011469;-72
2023/01/31 11:14:23;;;;;;;23.20;9.90;;;;;;;4.79;68.66;99970.90;82440;1260;3024858;-72
2023/01/31 11:17:07;;;;;;;17.10;7.30;;;;;;;4.79;68.48;99976.41;82495;1259;3025431;-75
2023/01/31 11:19:43;;;;;;;17.50;7.30;;;;;;;4.76;68.61;99972.15;82425;1260;3027717;-75
2023/01/31 11:22:23;;;;;;;19.20;7.70;;;;;;;4.75;68.49;99973.39;82456;1261;3026288;-75
2023/01/31 11:24:55;;;;;;;13.30;6.10;;;;;;;4.73;68.94;99975.16;82526;1256;3026311;-71
2023/01/31 11:27:29;;;;;;;11.50;4.80;;;;;;;4.69;68.02;99974.73;83783;1256;3011599;-71
2023/01/31 11:30:04;;;;;;;13.10;5.40;;;;;;;4.63;68.21;99978.64;82488;1256;3027466;-75
2023/01/31 11:32:38;;;;;;;22.40;10.30;;;;;;;4.60;68.48;99981.98;83234;1256;3011615;-75
2023/01/31 11:35:27;;;;;;;24.70;11.90;;;;;;;4.58;68.32;99986.02;83806;1256;3011607;-72
2023/01/31 11:38:01;;;;;;;26.50;13.90;;;;;;;4.52;67.97;99994.58;82482;1260;3026447;-72
2023/01/31 11:40:37;;;;;;;16.50;8.80;;;;;;;4.52;68.30;99989.04;83806;1257;3011559;-72
2023/01/31 11:43:26;;;;;;;18.50;9.60;;;;;;;4.57;68.16;99992.40;82474;1256;3026203;-70
2023/01/31 11:45:59;;;;;;;12.90;6.90;;;;;;;4.65;68.26;99985.17;82523;1256;3025089;-70
2023/01/31 11:48:41;;;;;;;14.10;5.70;;;;;;;4.69;68.09;99984.59;82490;1256;3025517;-70
2023/01/31 11:51:25;;;;;;;15.00;7.30;;;;;;;4.70;67.88;99984.22;82483;1256;3026103;-76
2023/01/31 11:53:58;;;;;;;10.20;4.50;;;;;;;4.69;67.50;99976.79;82451;1256;3025969;-76
2023/01/31 11:56:30;;;;;;;11.50;5.20;;;;;;;4.68;67.14;99974.92;83774;1260;3013520;-75
2023/01/31 11:59:07;;;;;;;12.20;5.10;;;;;;;4.66;66.63;99969.77;82485;1256;3024650;-75
2023/01/31 12:01:47;;;;;;;13.90;5.40;;;;;;;4.66;67.28;99964.76;82476;1260;3026201;-75